createdAt,value
2023-01-10T00:00:37.415Z,4.07
2023-01-10T00:03:09.135Z,5.38
2023-01-10T00:05:36.782Z,3.65
2023-01-10T00:08:04.587Z,4.95
2023-01-10T00:10:32.482Z,4.82
2023-01-10T00:13:17.554Z,4.70
2023-01-10T00:15:44.411Z,3.80
2023-01-10T00:18:10.851Z,3.95
2023-01-10T00:20:37.355Z,5.22
2023-01-10T00:23:03.799Z,4.68
2023-01-10T00:25:33.228Z,3.75
2023-01-10T00:28:31.820Z,3.95
2023-01-10T00:31:07.230Z,3.97
2023-01-10T00:33:35.697Z,5.70
2023-01-10T00:36:04.247Z,5.47
2023-01-10T00:38:31.779Z,4.10
2023-01-10T00:40:58.209Z,3.00
2023-01-10T00:43:43.574Z,3.80
2023-01-10T00:46:10.318Z,4.40
2023-01-10T00:48:37.381Z,4.20
2023-01-10T00:51:04.784Z,4.53
2023-01-10T00:53:31.469Z,3.65
2023-01-10T00:55:57.833Z,4.55
2023-01-10T00:58:24.293Z,4.32
2023-01-10T01:00:51.205Z,4.90
2023-01-10T01:03:19.885Z,5.22
2023-01-10T01:05:47.345Z,5.45
2023-01-10T01:08:15.030Z,3.65
2023-01-10T01:10:41.757Z,4.40
2023-01-10T01:13:17.557Z,5.35
2023-01-10T01:15:44.819Z,3.95
2023-01-10T01:18:18.015Z,5.90
2023-01-10T01:20:45.896Z,5.50
2023-01-10T01:23:13.425Z,4.45
2023-01-10T01:25:39.844Z,4.72
2023-01-10T01:28:06.493Z,4.82
2023-01-10T01:30:32.926Z,4.95
2023-01-10T01:32:59.326Z,3.95
2023-01-10T01:35:26.006Z,5.78
2023-01-10T01:37:52.704Z,3.80
2023-01-10T01:40:23.035Z,4.20
2023-01-10T01:42:55.427Z,5.40
2023-01-10T01:45:34.659Z,3.75
2023-01-10T01:48:09.822Z,4.38
2023-01-10T01:50:51.661Z,4.93
2023-01-10T01:53:27.426Z,4.43
2023-01-10T01:55:57.129Z,3.72
2023-01-10T01:58:29.767Z,3.60
2023-01-10T02:00:58.483Z,4.13
2023-01-10T02:03:26.615Z,4.25
2023-01-10T02:05:53.599Z,4.47
2023-01-10T02:08:20.412Z,4.88
2023-01-10T02:10:55.243Z,4.60
2023-01-10T02:13:25.349Z,4.70
2023-01-10T02:15:51.832Z,6.03
2023-01-10T02:18:20.699Z,5.22
2023-01-10T02:21:08.401Z,2.72
2023-01-10T02:23:56.209Z,5.72
2023-01-10T02:26:44.025Z,3.83
2023-01-10T02:29:44.668Z,4.20
2023-01-10T02:32:43.966Z,7.15
2023-01-10T02:35:43.700Z,4.03
2023-01-10T02:38:27.560Z,4.18
2023-01-10T02:41:28.200Z,4.18
2023-01-10T02:44:02.063Z,4.45
2023-01-10T02:46:31.492Z,6.30
2023-01-10T02:48:58.022Z,4.68
2023-01-10T02:51:27.678Z,3.00
2023-01-10T02:54:12.338Z,4.00
2023-01-10T02:56:55.656Z,4.72
2023-01-10T02:59:44.115Z,3.47
2023-01-10T03:02:22.434Z,4.13
2023-01-10T03:05:11.095Z,5.55
2023-01-10T03:07:46.801Z,4.45
2023-01-10T03:10:45.216Z,4.10
2023-01-10T03:13:23.853Z,4.10
2023-01-10T03:15:52.522Z,5.90
2023-01-10T03:18:25.267Z,4.28
2023-01-10T03:20:53.748Z,3.97
2023-01-10T03:23:22.815Z,4.28
2023-01-10T03:25:51.754Z,3.83
2023-01-10T03:28:26.071Z,3.35
2023-01-10T03:30:59.316Z,4.20
2023-01-10T03:33:29.666Z,4.05
2023-01-10T03:36:17.926Z,6.22
2023-01-10T03:39:05.281Z,5.60
2023-01-10T03:41:53.187Z,4.28
2023-01-10T03:44:45.355Z,3.78
2023-01-10T03:47:18.615Z,4.75
2023-01-10T03:49:49.227Z,4.57
2023-01-10T03:52:19.390Z,5.63
2023-01-10T03:54:47.449Z,3.88
2023-01-10T03:57:18.736Z,4.78
2023-01-10T03:59:46.218Z,8.60
2023-01-10T04:02:12.765Z,2.97
2023-01-10T04:04:39.118Z,3.53
2023-01-10T04:07:05.593Z,5.38
2023-01-10T04:09:31.942Z,4.25
2023-01-10T04:11:58.381Z,4.53
2023-01-10T04:14:24.780Z,4.32
2023-01-10T04:16:51.253Z,4.45
2023-01-10T04:19:17.614Z,5.05
2023-01-10T04:21:44.098Z,3.83
2023-01-10T04:24:10.790Z,3.97
2023-01-10T04:26:37.170Z,3.40
2023-01-10T04:29:03.898Z,4.60
2023-01-10T04:31:30.677Z,4.72
2023-01-10T04:33:57.153Z,5.03
2023-01-10T04:36:23.776Z,4.95
2023-01-10T04:38:50.275Z,4.30
2023-01-10T04:41:16.677Z,4.03
2023-01-10T04:43:43.034Z,4.32
2023-01-10T04:46:09.486Z,5.13
2023-01-10T04:48:37.308Z,5.80
2023-01-10T04:51:04.376Z,5.50
2023-01-10T04:53:30.902Z,4.93
2023-01-10T04:56:03.923Z,4.97
2023-01-10T04:58:33.016Z,5.78
2023-01-10T05:00:59.657Z,5.72
2023-01-10T05:03:26.146Z,6.00
2023-01-10T05:05:52.619Z,3.97
2023-01-10T05:08:19.551Z,4.65
2023-01-10T05:10:45.942Z,5.43
2023-01-10T05:13:12.334Z,5.57
2023-01-10T05:15:38.770Z,5.95
2023-01-10T05:18:05.179Z,4.57
2023-01-10T05:20:31.586Z,6.47
2023-01-10T05:22:57.950Z,7.80
2023-01-10T05:25:24.288Z,5.60
2023-01-10T05:27:50.705Z,6.53
2023-01-10T05:30:17.360Z,4.65
2023-01-10T05:32:43.728Z,4.75
2023-01-10T05:35:10.162Z,5.32
2023-01-10T05:37:38.089Z,5.22
2023-01-10T05:40:05.284Z,4.68
2023-01-10T05:42:31.713Z,6.45
2023-01-10T05:44:58.077Z,5.95
2023-01-10T05:47:25.440Z,5.80
2023-01-10T05:49:51.845Z,6.07
2023-01-10T05:52:18.255Z,5.55
2023-01-10T05:54:45.276Z,7.25
2023-01-10T05:57:11.702Z,4.75
2023-01-10T05:59:38.241Z,5.97
2023-01-10T06:02:04.797Z,5.28
2023-01-10T06:04:32.090Z,6.90
2023-01-10T06:06:58.529Z,7.70
2023-01-10T06:09:24.938Z,6.65
2023-01-10T06:11:51.563Z,7.20
2023-01-10T06:14:19.424Z,8.45
2023-01-10T06:16:46.847Z,6.10
2023-01-10T06:19:13.326Z,5.80
2023-01-10T06:21:39.698Z,6.60
2023-01-10T06:24:06.558Z,7.45
2023-01-10T06:26:32.994Z,9.50
2023-01-10T06:28:59.730Z,5.93
2023-01-10T06:31:26.957Z,8.15
2023-01-10T06:33:53.826Z,7.85
2023-01-10T06:36:20.435Z,11.70
2023-01-10T06:38:46.973Z,7.43
2023-01-10T06:41:13.488Z,6.97
2023-01-10T06:43:47.770Z,7.47
2023-01-10T06:46:16.711Z,8.50
2023-01-10T06:48:45.514Z,8.60
2023-01-10T06:51:14.059Z,8.57
2023-01-10T06:53:41.073Z,10.27
2023-01-10T06:56:09.565Z,7.78
2023-01-10T06:58:38.790Z,6.97
2023-01-10T07:01:14.380Z,6.50
2023-01-10T07:03:40.892Z,7.43
2023-01-10T07:06:10.734Z,10.57
2023-01-10T07:08:38.480Z,9.73
2023-01-10T07:11:05.305Z,10.32
2023-01-10T07:13:31.766Z,8.38
2023-01-10T07:16:05.818Z,10.23
2023-01-10T07:18:34.648Z,8.82
2023-01-10T07:21:01.069Z,10.15
2023-01-10T07:23:27.550Z,7.45
2023-01-10T07:25:54.059Z,9.70
2023-01-10T07:28:20.524Z,9.00
2023-01-10T07:30:46.875Z,7.57
2023-01-10T07:33:13.293Z,9.38
2023-01-10T07:35:39.969Z,8.82
2023-01-10T07:38:06.527Z,9.77
2023-01-10T07:40:32.998Z,10.02
2023-01-10T07:43:01.332Z,8.98
2023-01-10T07:45:29.645Z,10.00
2023-01-10T07:48:02.168Z,8.77
2023-01-10T07:50:31.091Z,11.73
2023-01-10T07:52:59.979Z,10.98
2023-01-10T07:55:28.036Z,9.18
2023-01-10T07:57:55.054Z,10.82
2023-01-10T08:00:22.270Z,11.07
2023-01-10T08:02:53.781Z,8.25
2023-01-10T08:05:20.499Z,8.05
2023-01-10T08:07:49.761Z,7.32
2023-01-10T08:10:16.791Z,13.18
2023-01-10T08:12:43.337Z,9.77
2023-01-10T08:15:10.406Z,7.82
2023-01-10T08:17:36.982Z,9.68
2023-01-10T08:20:03.765Z,9.88
2023-01-10T08:22:30.133Z,9.27
2023-01-10T08:24:56.579Z,11.43
2023-01-10T08:27:23.096Z,5.72
2023-01-10T08:29:49.701Z,10.07
2023-01-10T08:32:16.167Z,9.80
2023-01-10T08:34:42.593Z,9.60
2023-01-10T08:37:13.905Z,10.32
2023-01-10T08:39:40.431Z,10.82
2023-01-10T08:42:06.969Z,10.32
2023-01-10T08:44:33.529Z,9.07
2023-01-10T08:47:00.012Z,9.10
2023-01-10T08:49:26.503Z,10.38
2023-01-10T08:51:52.878Z,7.80
2023-01-10T08:54:19.294Z,8.50
2023-01-10T08:56:45.726Z,12.18
2023-01-10T08:59:12.219Z,7.63
2023-01-10T09:01:38.714Z,11.82
2023-01-10T09:04:05.398Z,7.07
2023-01-10T09:06:31.848Z,9.93
2023-01-10T09:08:58.246Z,9.73
2023-01-10T09:11:24.697Z,11.43
2023-01-10T09:13:51.488Z,11.40
2023-01-10T09:16:18.784Z,10.45
2023-01-10T09:18:45.435Z,10.13
2023-01-10T09:21:11.888Z,10.80
2023-01-10T09:23:39.919Z,9.38
2023-01-10T09:26:06.760Z,10.48
2023-01-10T09:28:33.215Z,14.05
2023-01-10T09:31:01.004Z,11.95
2023-01-10T09:33:35.014Z,11.02
2023-01-10T09:36:13.548Z,8.45
2023-01-10T09:38:40.000Z,11.75
2023-01-10T09:41:52.695Z,9.30
2023-01-10T09:44:30.655Z,10.40
2023-01-10T09:47:23.181Z,9.15
2023-01-10T09:49:58.118Z,10.73
2023-01-10T09:52:34.704Z,9.52
2023-01-10T09:55:16.586Z,8.95
2023-01-10T09:57:43.025Z,10.48
2023-01-10T10:00:15.373Z,7.75
2023-01-10T10:02:45.368Z,7.63
2023-01-10T10:05:25.231Z,8.77
2023-01-10T10:07:54.834Z,9.93
2023-01-10T10:10:40.685Z,8.23
2023-01-10T10:13:27.814Z,10.73
2023-01-10T10:16:19.430Z,8.20
2023-01-10T10:18:58.223Z,11.50
2023-01-10T10:22:08.160Z,10.02
2023-01-10T10:24:53.369Z,9.00
2023-01-10T10:27:34.649Z,10.95
2023-01-10T10:30:25.169Z,12.27
2023-01-10T10:32:54.659Z,8.35
2023-01-10T10:35:40.984Z,10.10
2023-01-10T10:38:20.806Z,9.73
2023-01-10T10:40:49.231Z,9.02
2023-01-10T10:43:22.800Z,12.15
2023-01-10T10:45:54.570Z,11.10
2023-01-10T10:48:32.026Z,7.22
2023-01-10T10:51:07.891Z,9.50
2023-01-10T10:53:35.083Z,8.55
2023-01-10T10:56:07.300Z,10.75
2023-01-10T10:58:34.033Z,8.02
2023-01-10T11:01:00.986Z,8.43
2023-01-10T11:03:46.849Z,10.35
2023-01-10T11:06:15.174Z,10.63
2023-01-10T11:08:45.364Z,9.52
2023-01-10T11:11:26.994Z,8.80
2023-01-10T11:13:54.763Z,8.18
2023-01-10T11:16:30.283Z,8.88
2023-01-10T11:19:35.691Z,10.17
2023-01-10T11:22:06.272Z,11.30
2023-01-10T11:24:35.972Z,11.05
2023-01-10T11:27:15.335Z,11.40
2023-01-10T11:29:56.328Z,8.32
2023-01-10T11:32:32.596Z,10.13
2023-01-10T11:35:02.410Z,7.88
2023-01-10T11:37:32.567Z,7.43
2023-01-10T11:40:25.790Z,9.10
2023-01-10T11:42:59.118Z,8.05
2023-01-10T11:45:33.669Z,11.13
2023-01-10T11:48:08.568Z,8.95
2023-01-10T11:50:41.196Z,7.05
2023-01-10T11:53:30.847Z,9.73
2023-01-10T11:55:57.321Z,7.63
2023-01-10T11:58:23.887Z,10.05
2023-01-10T12:00:50.456Z,7.80
2023-01-10T12:03:32.694Z,11.02
2023-01-10T12:06:15.429Z,9.88
2023-01-10T12:08:49.257Z,9.77
2023-01-10T12:11:27.369Z,10.88
2023-01-10T12:13:57.919Z,10.52
2023-01-10T12:16:27.809Z,9.40
2023-01-10T12:19:10.895Z,10.88
2023-01-10T12:21:40.388Z,9.90
2023-01-10T12:24:16.065Z,7.75
2023-01-10T12:26:43.792Z,8.65
2023-01-10T12:29:17.744Z,12.55
2023-01-10T12:31:44.331Z,11.90
2023-01-10T12:34:17.983Z,8.55
2023-01-10T12:37:06.282Z,13.82
2023-01-10T12:39:37.564Z,8.40
2023-01-10T12:42:25.687Z,7.63
2023-01-10T12:45:13.383Z,8.27
2023-01-10T12:47:56.813Z,11.63
2023-01-10T12:50:28.991Z,10.10
2023-01-10T12:53:07.965Z,9.40
2023-01-10T12:55:40.805Z,10.57
2023-01-10T12:58:17.431Z,10.50
2023-01-10T13:00:49.060Z,8.75
2023-01-10T13:03:20.539Z,11.40
2023-01-10T13:05:49.543Z,8.20
2023-01-10T13:08:20.880Z,8.38
2023-01-10T13:10:49.936Z,9.40
2023-01-10T13:13:31.766Z,10.52
2023-01-10T13:16:22.470Z,9.05
2023-01-10T13:19:02.718Z,10.20
2023-01-10T13:21:31.271Z,12.10
2023-01-10T13:24:01.069Z,8.20
2023-01-10T13:26:45.906Z,10.65
2023-01-10T13:29:18.354Z,8.68
2023-01-10T13:31:45.159Z,11.75
2023-01-10T13:34:14.589Z,9.30
2023-01-10T13:36:52.774Z,9.80
2023-01-10T13:39:34.173Z,9.20
2023-01-10T13:42:30.332Z,9.48
2023-01-10T13:45:03.257Z,8.05
2023-01-10T13:47:46.203Z,9.70
2023-01-10T13:50:36.508Z,13.15
2023-01-10T13:53:07.969Z,5.72
2023-01-10T13:55:42.468Z,8.52
2023-01-10T13:58:17.826Z,9.40
2023-01-10T14:01:17.821Z,9.60
2023-01-10T14:03:58.426Z,8.60
2023-01-10T14:06:27.896Z,7.35
2023-01-10T14:09:03.204Z,6.75
2023-01-10T14:11:46.098Z,8.82
2023-01-10T14:14:34.708Z,7.63
2023-01-10T14:17:14.697Z,9.82
2023-01-10T14:19:44.660Z,8.18
2023-01-10T14:22:32.109Z,7.70
2023-01-10T14:25:01.583Z,6.30
2023-01-10T14:27:52.864Z,9.38
2023-01-10T14:30:41.130Z,8.55
2023-01-10T14:33:16.620Z,8.90
2023-01-10T14:35:45.736Z,7.78
2023-01-10T14:38:33.920Z,5.80
2023-01-10T14:41:12.009Z,7.75
2023-01-10T14:44:06.460Z,9.35
2023-01-10T14:46:45.887Z,8.55
2023-01-10T14:49:29.127Z,7.70
2023-01-10T14:52:20.195Z,6.65
2023-01-10T14:54:47.921Z,10.00
2023-01-10T14:57:19.698Z,7.78
2023-01-10T14:59:46.601Z,7.25
2023-01-10T15:02:19.755Z,7.00
2023-01-10T15:04:53.604Z,7.20
2023-01-10T15:07:22.781Z,9.82
2023-01-10T15:09:56.518Z,6.70
2023-01-10T15:12:26.231Z,6.95
2023-01-10T15:15:07.961Z,7.75
2023-01-10T15:17:35.962Z,7.63
2023-01-10T15:20:04.429Z,5.57
2023-01-10T15:22:35.751Z,9.13
2023-01-10T15:25:25.418Z,5.25
2023-01-10T15:27:52.916Z,8.07
2023-01-10T15:30:24.781Z,8.40
2023-01-10T15:32:55.006Z,6.50
2023-01-10T15:35:35.382Z,7.50
2023-01-10T15:38:14.776Z,11.05
2023-01-10T15:40:42.254Z,9.65
2023-01-10T15:43:17.524Z,6.30
2023-01-10T15:45:46.092Z,5.25
2023-01-10T15:48:28.939Z,7.90
2023-01-10T15:51:47.243Z,5.25
2023-01-10T15:54:22.155Z,7.55
2023-01-10T15:56:50.362Z,6.32
2023-01-10T15:59:27.345Z,7.35
2023-01-10T16:01:56.605Z,6.10
2023-01-10T16:04:23.176Z,7.25
2023-01-10T16:06:53.383Z,6.40
2023-01-10T16:09:22.735Z,7.18
2023-01-10T16:12:09.953Z,5.10
2023-01-10T16:14:36.380Z,7.70
2023-01-10T16:17:04.041Z,5.45
2023-01-10T16:19:30.975Z,5.93
2023-01-10T16:21:59.163Z,4.78
2023-01-10T16:24:29.751Z,3.85
2023-01-10T16:26:58.163Z,3.90
2023-01-10T16:29:24.631Z,6.25
2023-01-10T16:31:52.271Z,5.03
2023-01-10T16:34:20.083Z,4.43
2023-01-10T16:36:47.068Z,3.45
2023-01-10T16:39:17.593Z,5.25
2023-01-10T16:42:03.722Z,5.47
2023-01-10T16:44:31.549Z,3.83
2023-01-10T16:46:58.391Z,3.00
2023-01-10T16:49:25.319Z,4.35
2023-01-10T16:51:52.236Z,4.93
2023-01-10T16:54:22.144Z,5.22
2023-01-10T16:56:49.608Z,4.47
2023-01-10T16:59:17.983Z,3.50
2023-01-10T17:01:55.036Z,3.53
2023-01-10T17:04:24.283Z,4.38
2023-01-10T17:06:50.766Z,4.20
2023-01-10T17:09:28.490Z,5.22
2023-01-10T17:12:02.571Z,3.55
2023-01-10T17:14:34.863Z,4.93
2023-01-10T17:17:04.075Z,3.15
2023-01-10T17:19:31.135Z,5.05
2023-01-10T17:21:57.580Z,3.65
2023-01-10T17:24:24.442Z,3.42
2023-01-10T17:26:50.874Z,3.60
2023-01-10T17:29:17.318Z,5.25
2023-01-10T17:31:43.785Z,4.35
2023-01-10T17:34:10.161Z,3.03
2023-01-10T17:36:39.089Z,5.65
2023-01-10T17:39:06.457Z,3.83
2023-01-10T17:41:33.097Z,5.45
2023-01-10T17:43:59.508Z,4.10
2023-01-10T17:46:25.923Z,2.55
2023-01-10T17:48:52.280Z,5.28
2023-01-10T17:51:18.723Z,3.70
2023-01-10T17:53:45.261Z,4.72
2023-01-10T17:56:11.753Z,5.28
2023-01-10T17:58:38.345Z,8.00
2023-01-10T18:01:05.130Z,8.00
2023-01-10T18:03:31.573Z,12.23
2023-01-10T18:05:58.764Z,7.35
2023-01-10T18:08:26.060Z,7.53
2023-01-10T18:10:59.273Z,7.15
2023-01-10T18:13:28.771Z,12.73
2023-01-10T18:15:55.165Z,6.60
2023-01-10T18:18:23.147Z,5.00
2023-01-10T18:20:50.503Z,11.68
2023-01-10T18:23:23.369Z,5.50
2023-01-10T18:25:59.793Z,5.68
2023-01-10T18:28:39.926Z,8.85
2023-01-10T18:31:09.908Z,4.10
2023-01-10T18:33:36.519Z,6.53
2023-01-10T18:36:04.809Z,4.32
2023-01-10T18:38:36.035Z,5.03
2023-01-10T18:41:03.052Z,5.63
2023-01-10T18:43:29.874Z,4.43
2023-01-10T18:46:06.085Z,4.18
2023-01-10T18:48:32.921Z,4.07
2023-01-10T18:51:00.908Z,5.95
2023-01-10T18:53:27.945Z,4.93
2023-01-10T18:55:59.323Z,4.88
2023-01-10T18:58:28.152Z,5.25
2023-01-10T19:00:54.807Z,4.38
2023-01-10T19:03:21.457Z,6.45
2023-01-10T19:05:47.917Z,5.35
2023-01-10T19:08:14.357Z,4.70
2023-01-10T19:11:11.443Z,4.47
2023-01-10T19:13:32.664Z,3.80
2023-01-10T19:16:11.383Z,5.03
2023-01-10T19:18:38.923Z,5.68
2023-01-10T19:21:06.075Z,5.65
2023-01-10T19:23:33.270Z,4.60
2023-01-10T19:25:59.904Z,6.70
2023-01-10T19:28:29.834Z,2.92
2023-01-10T19:31:04.233Z,6.20
2023-01-10T19:33:34.240Z,6.65
2023-01-10T19:36:05.504Z,5.70
2023-01-10T19:38:31.937Z,4.55
2023-01-10T19:40:58.455Z,4.30
2023-01-10T19:43:25.999Z,5.22
2023-01-10T19:45:53.434Z,4.47
2023-01-10T19:48:19.974Z,4.85
2023-01-10T19:50:46.785Z,5.93
2023-01-10T19:53:14.048Z,4.78
2023-01-10T19:55:40.434Z,5.53
2023-01-10T19:58:06.949Z,5.45
2023-01-10T20:00:33.375Z,4.28
2023-01-10T20:03:00.416Z,5.43
2023-01-10T20:05:27.291Z,6.47
2023-01-10T20:07:53.784Z,2.35
2023-01-10T20:10:20.415Z,3.00
2023-01-10T20:12:46.839Z,2.90
2023-01-10T20:15:13.331Z,2.58
2023-01-10T20:17:40.448Z,4.15
2023-01-10T20:20:08.504Z,4.13
2023-01-10T20:22:34.919Z,3.63
2023-01-10T20:25:01.364Z,3.22
2023-01-10T20:27:28.220Z,3.38
2023-01-10T20:29:54.602Z,3.40
2023-01-10T20:32:22.098Z,2.67
2023-01-10T20:34:49.690Z,3.25
2023-01-10T20:37:16.326Z,4.57
2023-01-10T20:39:42.683Z,3.22
2023-01-10T20:42:09.109Z,3.10
2023-01-10T20:44:35.510Z,4.13
2023-01-10T20:47:02.001Z,3.53
2023-01-10T20:49:29.629Z,3.25
2023-01-10T20:51:56.167Z,3.95
2023-01-10T20:54:22.985Z,3.08
2023-01-10T20:56:49.646Z,3.58
2023-01-10T20:59:16.107Z,1.88
2023-01-10T21:01:42.560Z,2.88
2023-01-10T21:04:08.999Z,2.40
2023-01-10T21:06:36.215Z,2.33
2023-01-10T21:09:04.342Z,2.00
2023-01-10T21:11:30.758Z,3.58
2023-01-10T21:13:57.207Z,2.47
2023-01-10T21:16:24.016Z,1.63
2023-01-10T21:18:50.721Z,2.05
2023-01-10T21:21:19.724Z,2.58
2023-01-10T21:23:46.376Z,3.10
2023-01-10T21:26:15.034Z,1.38
2023-01-10T21:28:46.532Z,3.58
2023-01-10T21:31:15.660Z,3.13
2023-01-10T21:33:42.363Z,1.45
2023-01-10T21:36:09.396Z,2.05
2023-01-10T21:38:39.283Z,1.65
2023-01-10T21:41:13.985Z,1.85
2023-01-10T21:43:44.193Z,2.40
2023-01-10T21:46:11.349Z,2.00
2023-01-10T21:48:37.778Z,1.88
2023-01-10T21:51:04.281Z,2.70
2023-01-10T21:53:30.685Z,1.83
2023-01-10T21:55:59.743Z,2.65
2023-01-10T21:58:26.347Z,1.92
2023-01-10T22:00:58.705Z,2.65
2023-01-10T22:03:25.513Z,1.50
2023-01-10T22:05:51.977Z,1.75
2023-01-10T22:08:18.423Z,1.45
2023-01-10T22:10:44.856Z,3.13
2023-01-10T22:13:11.223Z,1.55
2023-01-10T22:15:37.935Z,2.45
2023-01-10T22:18:04.357Z,1.27
2023-01-10T22:20:30.746Z,0.93
2023-01-10T22:22:58.351Z,2.60
2023-01-10T22:25:24.813Z,1.42
2023-01-10T22:27:53.286Z,0.82
2023-01-10T22:30:19.748Z,2.47
2023-01-10T22:32:46.151Z,2.28
2023-01-10T22:35:14.525Z,1.88
2023-01-10T22:37:41.356Z,1.98
2023-01-10T22:40:08.508Z,1.15
2023-01-10T22:42:34.927Z,1.40
2023-01-10T22:45:01.307Z,1.80
2023-01-10T22:47:27.748Z,1.75
2023-01-10T22:49:54.146Z,2.20
2023-01-10T22:52:20.548Z,2.17
2023-01-10T22:54:47.107Z,1.67
2023-01-10T22:57:14.382Z,1.85
2023-01-10T22:59:40.753Z,2.03
2023-01-10T23:02:07.104Z,1.60
2023-01-10T23:04:33.480Z,1.67
2023-01-10T23:06:59.978Z,1.17
2023-01-10T23:09:26.491Z,0.82
2023-01-10T23:11:52.855Z,1.35
2023-01-10T23:14:19.205Z,1.88
2023-01-10T23:16:45.936Z,0.88
2023-01-10T23:19:12.739Z,1.38
2023-01-10T23:21:39.095Z,1.10
2023-01-10T23:24:06.017Z,1.05
2023-01-10T23:26:32.438Z,2.15
2023-01-10T23:28:58.800Z,1.02
2023-01-10T23:31:29.282Z,0.80
2023-01-10T23:33:56.106Z,1.10
2023-01-10T23:36:23.719Z,1.02
2023-01-10T23:38:50.609Z,1.25
2023-01-10T23:41:20.985Z,2.42
2023-01-10T23:43:49.811Z,1.98
2023-01-10T23:46:17.085Z,1.73
2023-01-10T23:48:46.042Z,1.60
2023-01-10T23:51:13.165Z,2.53
2023-01-10T23:53:40.017Z,1.15
2023-01-10T23:56:14.610Z,3.28
2023-01-10T23:58:41.487Z,1.45
